createdAt,value
2023-04-16T00:00:32.330Z,8.70
2023-04-16T00:03:33.868Z,9.50
2023-04-16T00:06:23.153Z,9.70
2023-04-16T00:09:11.115Z,8.90
2023-04-16T00:11:59.480Z,9.00
2023-04-16T00:14:47.187Z,9.50
2023-04-16T00:17:35.313Z,7.30
2023-04-16T00:20:23.138Z,9.40
2023-04-16T00:23:11.031Z,7.90
2023-04-16T00:26:00.291Z,9.50
2023-04-16T00:28:48.186Z,10.00
2023-04-16T00:31:37.030Z,9.70
2023-04-16T00:34:25.116Z,9.20
2023-04-16T00:37:12.946Z,9.30
2023-04-16T00:40:01.697Z,10.10
2023-04-16T00:42:49.827Z,9.10
2023-04-16T00:45:37.833Z,9.30
2023-04-16T00:48:28.329Z,9.80
2023-04-16T00:51:17.084Z,10.10
2023-04-16T00:54:06.517Z,10.30
2023-04-16T00:56:54.208Z,10.00
2023-04-16T00:59:42.520Z,10.20
2023-04-16T01:02:30.680Z,10.30
2023-04-16T01:05:18.339Z,13.50
2023-04-16T01:08:06.693Z,12.20
2023-04-16T01:10:54.289Z,10.40
2023-04-16T01:13:42.560Z,13.00
2023-04-16T01:16:30.953Z,9.90
2023-04-16T01:19:18.734Z,9.30
2023-04-16T01:22:09.024Z,9.50
2023-04-16T01:24:56.946Z,10.50
2023-04-16T01:27:44.774Z,9.80
2023-04-16T01:30:32.646Z,11.00
2023-04-16T01:33:35.674Z,10.50
2023-04-16T01:36:23.440Z,9.80
2023-04-16T01:39:15.630Z,9.40
2023-04-16T01:42:03.394Z,10.00
2023-04-16T01:44:51.283Z,10.20
2023-04-16T01:47:43.023Z,10.00
2023-04-16T01:50:31.450Z,10.40
2023-04-16T01:53:19.214Z,9.50
2023-04-16T01:56:07.820Z,10.10
2023-04-16T01:58:56.232Z,13.70
2023-04-16T02:01:44.757Z,12.20
2023-04-16T02:04:32.728Z,11.20
2023-04-16T02:07:20.359Z,11.30
2023-04-16T02:10:10.403Z,10.90
2023-04-16T02:12:59.860Z,11.10
2023-04-16T02:15:51.966Z,11.20
2023-04-16T02:18:53.039Z,11.50
2023-04-16T02:21:42.823Z,12.10
2023-04-16T02:24:30.845Z,12.20
2023-04-16T02:27:20.028Z,12.60
2023-04-16T02:30:10.736Z,13.70
2023-04-16T02:32:59.232Z,11.30
2023-04-16T02:35:48.748Z,12.60
2023-04-16T02:38:37.612Z,12.50
2023-04-16T02:41:25.690Z,13.40
2023-04-16T02:44:13.855Z,12.70
2023-04-16T02:47:01.736Z,11.60
2023-04-16T02:49:49.521Z,13.10
2023-04-16T02:52:37.330Z,14.60
2023-04-16T02:55:25.111Z,11.20
2023-04-16T02:58:12.744Z,13.40
2023-04-16T03:01:00.715Z,13.50
2023-04-16T03:03:48.512Z,13.10
2023-04-16T03:06:36.239Z,12.00
2023-04-16T03:09:24.244Z,11.70
2023-04-16T03:12:14.507Z,11.20
2023-04-16T03:15:02.603Z,14.40
2023-04-16T03:17:51.331Z,13.00
2023-04-16T03:20:39.335Z,14.20
2023-04-16T03:23:28.278Z,12.70
2023-04-16T03:26:16.514Z,13.50
2023-04-16T03:29:04.689Z,13.00
2023-04-16T03:31:52.664Z,12.60
2023-04-16T03:34:41.531Z,13.50
2023-04-16T03:37:29.257Z,12.60
2023-04-16T03:40:16.960Z,12.50
2023-04-16T03:43:04.949Z,11.50
2023-04-16T03:45:53.853Z,12.80
2023-04-16T03:48:43.737Z,14.90
2023-04-16T03:51:33.193Z,12.30
2023-04-16T03:54:22.845Z,12.90
2023-04-16T03:57:15.581Z,12.80
2023-04-16T04:00:04.336Z,13.00
2023-04-16T04:03:02.292Z,15.50
2023-04-16T04:05:50.810Z,14.00
2023-04-16T04:08:44.891Z,12.50
2023-04-16T04:11:34.367Z,13.20
2023-04-16T04:14:22.766Z,13.20
2023-04-16T04:17:10.896Z,13.40
2023-04-16T04:20:01.325Z,13.40
2023-04-16T04:22:51.528Z,14.10
2023-04-16T04:28:34.892Z,14.60
2023-04-16T04:31:24.019Z,12.20
2023-04-16T04:34:15.447Z,14.10
2023-04-16T04:37:03.759Z,15.90
2023-04-16T04:39:51.721Z,14.00
2023-04-16T04:42:39.643Z,15.60
2023-04-16T04:45:29.630Z,13.20
2023-04-16T04:48:19.505Z,11.80
2023-04-16T04:51:07.107Z,12.90
2023-04-16T04:53:54.726Z,14.10
2023-04-16T04:56:42.391Z,12.20
2023-04-16T04:59:29.913Z,14.20
2023-04-16T05:05:06.292Z,11.40
2023-04-16T05:07:54.166Z,14.30
2023-04-16T05:10:42.059Z,14.00
2023-04-16T05:13:30.006Z,12.30
2023-04-16T05:16:17.740Z,12.80
2023-04-16T05:19:05.458Z,12.70
2023-04-16T05:21:53.151Z,12.60
2023-04-16T05:24:41.246Z,12.90
2023-04-16T05:27:29.038Z,12.50
2023-04-16T05:33:04.444Z,12.10
2023-04-16T05:35:51.827Z,13.00
2023-04-16T05:38:39.569Z,12.00
2023-04-16T05:41:27.090Z,12.50
2023-04-16T05:44:15.376Z,12.00
2023-04-16T05:47:03.152Z,12.60
2023-04-16T05:49:52.085Z,15.50
2023-04-16T05:52:39.509Z,13.90
2023-04-16T05:55:28.035Z,11.40
2023-04-16T05:58:15.949Z,12.40
2023-04-16T06:01:03.540Z,12.40
2023-04-16T06:03:51.513Z,11.90
2023-04-16T06:06:40.277Z,16.90
2023-04-16T06:09:28.331Z,13.60
2023-04-16T06:12:16.015Z,14.40
2023-04-16T06:15:04.951Z,13.20
2023-04-16T06:17:52.960Z,11.60
2023-04-16T06:20:40.668Z,12.90
2023-04-16T06:23:28.458Z,15.40
2023-04-16T06:26:16.270Z,14.30
2023-04-16T06:29:04.491Z,13.70
2023-04-16T06:31:52.247Z,12.20
2023-04-16T06:34:40.070Z,13.30
2023-04-16T06:37:29.022Z,10.90
2023-04-16T06:40:17.130Z,13.00
2023-04-16T06:43:04.818Z,13.30
2023-04-16T06:45:52.592Z,12.60
2023-04-16T06:48:42.228Z,14.20
2023-04-16T06:51:30.769Z,12.80
2023-04-16T06:54:19.903Z,11.80
2023-04-16T06:57:07.965Z,11.50
2023-04-16T06:59:55.491Z,11.40
2023-04-16T07:02:43.237Z,14.90
2023-04-16T07:05:31.847Z,14.00
2023-04-16T07:08:19.370Z,12.50
2023-04-16T07:11:08.771Z,13.90
2023-04-16T07:13:57.914Z,13.70
2023-04-16T07:16:46.319Z,14.00
2023-04-16T07:19:35.361Z,14.00
2023-04-16T07:22:22.966Z,16.10
2023-04-16T07:25:11.043Z,12.70
2023-04-16T07:27:58.872Z,12.80
2023-04-16T07:30:46.648Z,12.10
2023-04-16T07:33:34.080Z,12.90
2023-04-16T07:36:23.300Z,11.90
2023-04-16T07:39:11.724Z,11.60
2023-04-16T07:42:00.233Z,13.10
2023-04-16T07:44:47.886Z,12.90
2023-04-16T07:47:35.662Z,11.40
2023-04-16T07:50:23.486Z,11.40
2023-04-16T07:53:11.909Z,13.30
2023-04-16T07:55:59.875Z,9.40
2023-04-16T07:58:47.424Z,13.80
2023-04-16T08:01:36.087Z,11.00
2023-04-16T08:04:27.453Z,10.60
2023-04-16T08:07:15.637Z,11.20
2023-04-16T08:12:51.016Z,13.70
2023-04-16T08:15:38.945Z,12.50
2023-04-16T08:18:28.105Z,11.00
2023-04-16T08:21:16.149Z,12.70
2023-04-16T08:24:04.267Z,10.60
2023-04-16T08:26:51.979Z,10.80
2023-04-16T08:29:40.063Z,10.60
2023-04-16T08:32:28.344Z,11.90
2023-04-16T08:35:16.289Z,9.70
2023-04-16T08:38:08.492Z,7.90
2023-04-16T08:41:02.869Z,11.80
2023-04-16T08:43:54.855Z,9.60
2023-04-16T08:46:43.805Z,9.30
2023-04-16T08:49:37.681Z,9.40
2023-04-16T08:52:31.849Z,8.50
2023-04-16T08:55:35.079Z,8.80
2023-04-16T08:58:26.761Z,7.20
2023-04-16T09:01:15.626Z,8.50
2023-04-16T09:04:04.201Z,8.20
2023-04-16T09:06:54.019Z,6.90
2023-04-16T09:09:44.057Z,8.80
2023-04-16T09:12:33.005Z,7.60
2023-04-16T09:18:09.178Z,7.50
2023-04-16T09:20:57.309Z,8.20
2023-04-16T09:23:45.900Z,7.80
2023-04-16T09:26:34.167Z,7.40
2023-04-16T09:29:36.595Z,6.60
2023-04-16T09:32:29.145Z,7.30
2023-04-16T09:35:22.486Z,7.10
2023-04-16T09:38:14.589Z,9.90
2023-04-16T09:41:09.891Z,9.50
2023-04-16T09:44:05.406Z,7.20
2023-04-16T09:46:54.628Z,6.60
2023-04-16T09:49:44.729Z,6.40
2023-04-16T09:52:38.715Z,6.30
2023-04-16T09:55:29.636Z,7.70
2023-04-16T09:58:21.407Z,5.90
2023-04-16T10:01:12.415Z,7.20
2023-04-16T10:04:01.723Z,6.40
2023-04-16T10:07:06.787Z,8.30
2023-04-16T10:09:56.007Z,7.50
2023-04-16T10:12:44.640Z,7.00
2023-04-16T10:15:34.240Z,7.40
2023-04-16T10:18:22.404Z,7.60
2023-04-16T10:21:13.325Z,7.70
2023-04-16T10:24:01.975Z,8.80
2023-04-16T10:26:52.433Z,7.80
2023-04-16T10:29:41.996Z,7.70
2023-04-16T10:32:31.590Z,7.10
2023-04-16T10:35:22.726Z,7.70
2023-04-16T10:38:27.928Z,10.10
2023-04-16T10:41:16.279Z,8.60
2023-04-16T10:44:10.094Z,9.40
2023-04-16T10:46:58.006Z,9.20
2023-04-16T10:49:48.310Z,8.50
2023-04-16T10:52:37.749Z,9.00
2023-04-16T10:55:27.244Z,8.40
2023-04-16T10:58:36.596Z,8.50
2023-04-16T11:01:45.612Z,7.00
2023-04-16T11:04:44.086Z,6.90
2023-04-16T11:07:35.355Z,7.30
2023-04-16T11:10:23.020Z,7.30
2023-04-16T11:13:12.997Z,8.50
2023-04-16T11:16:01.567Z,6.40
2023-04-16T11:18:51.454Z,7.00
2023-04-16T11:21:42.333Z,6.90
2023-04-16T11:24:31.598Z,8.60
2023-04-16T11:27:19.973Z,7.40
2023-04-16T11:30:11.938Z,8.10
2023-04-16T11:33:05.915Z,8.80
2023-04-16T11:35:59.015Z,7.90
2023-04-16T11:38:48.846Z,10.40
2023-04-16T11:41:50.618Z,8.30
2023-04-16T11:44:38.248Z,8.70
2023-04-16T11:47:27.231Z,10.60
2023-04-16T11:50:22.567Z,10.40
2023-04-16T11:53:10.397Z,10.20
2023-04-16T11:55:58.281Z,8.70
2023-04-16T11:59:05.455Z,10.10
2023-04-16T12:01:56.273Z,10.50
2023-04-16T12:04:44.091Z,11.60
2023-04-16T12:07:31.915Z,10.50
2023-04-16T12:10:19.841Z,10.40
2023-04-16T12:13:16.513Z,13.10
2023-04-16T12:16:18.460Z,9.00
2023-04-16T12:19:06.364Z,12.30
2023-04-16T12:21:54.978Z,11.20
2023-04-16T12:24:42.717Z,20.20
2023-04-16T12:27:54.033Z,13.40
2023-04-16T12:30:53.248Z,12.50
2023-04-16T12:33:42.573Z,9.60
2023-04-16T12:36:31.740Z,9.80
2023-04-16T12:39:19.937Z,10.50
2023-04-16T12:42:11.309Z,10.30
2023-04-16T12:44:59.127Z,13.10
2023-04-16T12:47:48.063Z,11.20
2023-04-16T12:50:36.294Z,13.60
2023-04-16T12:53:24.306Z,10.40
2023-04-16T12:56:12.044Z,10.50
2023-04-16T12:58:59.972Z,10.60
2023-04-16T13:01:47.855Z,8.90
2023-04-16T13:04:37.458Z,11.20
2023-04-16T13:07:26.842Z,10.90
2023-04-16T13:10:14.915Z,9.30
2023-04-16T13:13:02.864Z,10.90
2023-04-16T13:15:51.006Z,10.70
2023-04-16T13:18:40.316Z,11.90
2023-04-16T13:21:30.025Z,11.70
2023-04-16T13:24:17.799Z,10.50
2023-04-16T13:27:06.120Z,11.40
2023-04-16T13:29:53.776Z,12.60
2023-04-16T13:32:41.826Z,11.90
2023-04-16T13:35:30.100Z,10.80
2023-04-16T13:38:19.743Z,12.10
2023-04-16T13:41:08.024Z,10.80
2023-04-16T13:43:55.881Z,12.30
2023-04-16T13:46:47.692Z,11.40
2023-04-16T13:49:36.333Z,10.50
2023-04-16T13:52:24.577Z,14.40
2023-04-16T13:55:14.242Z,12.10
2023-04-16T13:58:03.352Z,12.80
2023-04-16T14:00:51.212Z,10.30
2023-04-16T14:03:40.748Z,11.10
2023-04-16T14:06:29.287Z,13.20
2023-04-16T14:09:17.377Z,11.40
2023-04-16T14:12:05.935Z,13.50
2023-04-16T14:14:57.111Z,11.30
2023-04-16T14:17:45.473Z,12.60
2023-04-16T14:20:33.538Z,11.50
2023-04-16T14:23:21.794Z,12.60
2023-04-16T14:26:10.991Z,12.30
2023-04-16T14:28:58.619Z,9.60
2023-04-16T14:31:47.851Z,12.00
2023-04-16T14:34:35.615Z,13.70
2023-04-16T14:37:23.424Z,11.30
2023-04-16T14:40:12.423Z,11.20
2023-04-16T14:43:03.629Z,11.80
2023-04-16T14:45:52.835Z,11.20
2023-04-16T14:48:40.904Z,9.50
2023-04-16T14:51:28.474Z,10.40
2023-04-16T14:54:16.381Z,10.30
2023-04-16T14:57:04.154Z,7.70
2023-04-16T14:59:53.974Z,10.20
2023-04-16T15:02:42.340Z,10.70
2023-04-16T15:05:31.593Z,11.40
2023-04-16T15:08:19.578Z,10.30
2023-04-16T15:11:09.064Z,11.10
2023-04-16T15:13:58.604Z,12.50
2023-04-16T15:16:48.058Z,12.20
2023-04-16T15:19:39.958Z,11.00
2023-04-16T15:22:28.472Z,11.30
2023-04-16T15:25:17.044Z,11.10
2023-04-16T15:28:06.596Z,9.70
2023-04-16T15:30:54.481Z,11.10
2023-04-16T15:33:42.335Z,10.70
2023-04-16T15:36:30.162Z,11.50
2023-04-16T15:39:17.748Z,11.00
2023-04-16T15:42:07.546Z,9.90
2023-04-16T15:44:57.942Z,13.00
2023-04-16T15:47:48.102Z,13.30
2023-04-16T15:50:36.753Z,12.00
2023-04-16T15:53:24.813Z,14.40
2023-04-16T15:56:12.303Z,12.60
2023-04-16T15:59:00.053Z,14.10
2023-04-16T16:01:47.768Z,11.70
2023-04-16T16:04:36.683Z,11.10
2023-04-16T16:07:25.346Z,11.10
2023-04-16T16:10:13.668Z,12.10
2023-04-16T16:13:05.461Z,10.10
2023-04-16T16:15:53.216Z,9.10
2023-04-16T16:18:42.188Z,12.40
2023-04-16T16:21:32.991Z,12.50
2023-04-16T16:24:21.093Z,12.50
2023-04-16T16:27:08.997Z,12.50
2023-04-16T16:29:56.758Z,12.60
2023-04-16T16:32:44.709Z,13.30
2023-04-16T16:35:32.672Z,11.60
2023-04-16T16:38:21.169Z,11.30
2023-04-16T16:41:09.182Z,12.10
2023-04-16T16:43:56.939Z,10.80
2023-04-16T16:46:44.811Z,12.20
2023-04-16T16:49:35.001Z,11.60
2023-04-16T16:52:25.896Z,13.60
2023-04-16T16:55:13.607Z,25.50
2023-04-16T16:58:02.344Z,26.60
2023-04-16T17:00:51.301Z,20.10
2023-04-16T17:03:41.686Z,14.60
2023-04-16T17:06:32.054Z,12.50
2023-04-16T17:09:20.288Z,11.40
2023-04-16T17:12:09.165Z,12.10
2023-04-16T17:14:59.463Z,11.20
2023-04-16T17:17:50.245Z,12.50
2023-04-16T17:20:40.038Z,11.00
2023-04-16T17:26:20.971Z,14.70
2023-04-16T17:29:09.020Z,15.40
2023-04-16T17:31:57.313Z,14.20
2023-04-16T17:34:45.872Z,13.20
2023-04-16T17:37:34.107Z,12.80
2023-04-16T17:40:23.167Z,12.60
2023-04-16T17:43:12.659Z,12.40
2023-04-16T17:46:01.200Z,11.90
2023-04-16T17:48:52.919Z,11.70
2023-04-16T17:51:44.459Z,12.90
2023-04-16T17:54:32.764Z,11.20
2023-04-16T17:57:21.418Z,12.10
2023-04-16T18:00:11.543Z,10.90
2023-04-16T18:03:00.038Z,10.70
2023-04-16T18:05:48.367Z,11.30
2023-04-16T18:08:37.024Z,9.80
2023-04-16T18:11:24.858Z,11.80
2023-04-16T18:14:16.922Z,14.60
2023-04-16T18:17:06.617Z,13.50
2023-04-16T18:19:55.060Z,12.70
2023-04-16T18:22:42.865Z,11.60
2023-04-16T18:25:35.065Z,12.30
2023-04-16T18:28:24.588Z,11.00
2023-04-16T18:31:12.834Z,12.30
2023-04-16T18:34:00.356Z,13.60
2023-04-16T18:36:49.261Z,9.20
2023-04-16T18:39:39.972Z,10.30
2023-04-16T18:42:30.855Z,11.20
2023-04-16T18:45:21.845Z,13.60
2023-04-16T18:48:09.899Z,12.30
2023-04-16T18:50:58.618Z,17.20
2023-04-16T18:53:46.925Z,19.80
2023-04-16T18:56:35.090Z,21.10
2023-04-16T18:59:25.701Z,15.10
2023-04-16T19:02:13.781Z,14.30
2023-04-16T19:05:02.250Z,14.70
2023-04-16T19:07:49.950Z,14.40
2023-04-16T19:10:37.790Z,15.20
2023-04-16T19:13:25.735Z,14.50
2023-04-16T19:16:13.810Z,10.30
2023-04-16T19:19:02.359Z,13.20
2023-04-16T19:21:51.544Z,14.00
2023-04-16T19:24:39.881Z,12.80
2023-04-16T19:27:29.727Z,12.40
2023-04-16T19:30:30.728Z,11.10
2023-04-16T19:33:21.850Z,11.40
2023-04-16T19:36:09.948Z,10.10
2023-04-16T19:38:58.161Z,10.30
2023-04-16T19:41:46.910Z,10.60
2023-04-16T19:44:36.029Z,9.00
2023-04-16T19:47:25.065Z,8.00
2023-04-16T19:50:13.066Z,9.10
2023-04-16T19:53:01.330Z,9.80
2023-04-16T19:55:51.671Z,8.70
2023-04-16T19:58:40.101Z,7.30
2023-04-16T20:01:28.338Z,8.30
2023-04-16T20:04:16.325Z,9.20
2023-04-16T20:07:05.601Z,7.30
2023-04-16T20:09:53.401Z,6.90
2023-04-16T20:12:41.239Z,8.70
2023-04-16T20:15:28.979Z,7.90
2023-04-16T20:18:16.670Z,7.60
2023-04-16T20:21:04.620Z,8.00
2023-04-16T20:23:52.126Z,8.90
2023-04-16T20:26:40.057Z,6.80
2023-04-16T20:29:27.909Z,6.80
2023-04-16T20:32:15.973Z,7.50
2023-04-16T20:35:05.260Z,6.20
2023-04-16T20:37:53.251Z,6.80
2023-04-16T20:40:44.813Z,7.30
2023-04-16T20:43:38.387Z,7.20
2023-04-16T20:46:30.334Z,6.90
2023-04-16T20:49:18.600Z,8.10
2023-04-16T20:52:07.479Z,7.70
2023-04-16T20:54:55.097Z,7.10
2023-04-16T20:57:42.794Z,6.60
2023-04-16T21:00:30.639Z,6.90
2023-04-16T21:03:19.103Z,6.60
2023-04-16T21:06:07.142Z,7.60
2023-04-16T21:08:54.552Z,7.10
2023-04-16T21:11:44.123Z,6.90
2023-04-16T21:14:33.424Z,7.70
2023-04-16T21:17:21.733Z,8.10
2023-04-16T21:20:14.637Z,7.80
2023-04-16T21:23:04.117Z,9.00
2023-04-16T21:25:51.886Z,8.60
2023-04-16T21:28:39.657Z,6.60
2023-04-16T21:31:28.531Z,7.30
2023-04-16T21:34:17.366Z,7.40
2023-04-16T21:37:06.886Z,7.40
2023-04-16T21:39:54.242Z,8.30
2023-04-16T21:42:42.525Z,7.30
2023-04-16T21:45:33.457Z,8.60
2023-04-16T21:48:22.179Z,9.10
2023-04-16T21:51:10.635Z,8.10
2023-04-16T21:53:59.025Z,8.20
2023-04-16T21:56:46.927Z,10.00
2023-04-16T21:59:34.518Z,8.80
2023-04-16T22:02:22.521Z,9.90
2023-04-16T22:05:11.427Z,10.60
2023-04-16T22:07:59.112Z,9.30
2023-04-16T22:10:46.946Z,9.50
2023-04-16T22:16:25.165Z,10.50
2023-04-16T22:19:14.269Z,8.60
2023-04-16T22:22:01.750Z,8.00
2023-04-16T22:24:49.390Z,9.50
2023-04-16T22:27:37.244Z,7.90
2023-04-16T22:30:24.881Z,8.00
2023-04-16T22:33:12.647Z,13.40
2023-04-16T22:36:00.835Z,7.60
2023-04-16T22:38:48.783Z,29.60
2023-04-16T22:41:36.688Z,11.10
2023-04-16T22:44:24.198Z,8.20
2023-04-16T22:47:12.390Z,8.00
2023-04-16T22:52:48.647Z,8.30
2023-04-16T22:55:36.819Z,7.80
2023-04-16T22:58:24.738Z,8.00
2023-04-16T23:01:12.983Z,14.40
2023-04-16T23:04:01.158Z,6.80
2023-04-16T23:06:49.309Z,7.80
2023-04-16T23:09:37.217Z,7.20
2023-04-16T23:12:25.384Z,7.20
2023-04-16T23:15:14.693Z,7.20
2023-04-16T23:18:03.806Z,7.40
2023-04-16T23:20:55.097Z,8.30
2023-04-16T23:23:42.958Z,7.50
2023-04-16T23:26:32.968Z,7.50
2023-04-16T23:29:21.020Z,6.90
2023-04-16T23:32:08.688Z,7.70
2023-04-16T23:34:56.536Z,6.40
2023-04-16T23:37:44.601Z,7.50
2023-04-16T23:40:32.420Z,6.40
2023-04-16T23:43:20.054Z,7.20
2023-04-16T23:46:07.749Z,7.70
2023-04-16T23:48:55.974Z,6.70
2023-04-16T23:51:44.017Z,8.40
2023-04-16T23:54:31.724Z,7.40
2023-04-16T23:57:19.582Z,6.60
